sensor_id;sensor_type;location;lat;lon;timestamp;temperature;humidity
69595;DHT22;56800;52.142;5.364;2022-09-19T00:01:37;10.80;78.60
69595;DHT22;56800;52.142;5.364;2022-09-19T00:05:26;10.80;78.60
69595;DHT22;56800;52.142;5.364;2022-09-19T00:12:51;10.80;78.50
69595;DHT22;56800;52.142;5.364;2022-09-19T00:15:51;10.80;78.50
69595;DHT22;56800;52.142;5.364;2022-09-19T00:19:16;10.90;78.60
69595;DHT22;56800;52.142;5.364;2022-09-19T00:22:48;10.90;78.60
69595;DHT22;56800;52.142;5.364;2022-09-19T00:26:06;10.90;78.60
69595;DHT22;56800;52.142;5.364;2022-09-19T00:29:59;10.90;78.60
69595;DHT22;56800;52.142;5.364;2022-09-19T00:33:32;11.00;78.60
69595;DHT22;56800;52.142;5.364;2022-09-19T00:36:59;11.00;78.50
69595;DHT22;56800;52.142;5.364;2022-09-19T00:40:21;11.00;78.30
69595;DHT22;56800;52.142;5.364;2022-09-19T00:47:46;11.10;78.30
69595;DHT22;56800;52.142;5.364;2022-09-19T00:51:59;11.20;78.30
69595;DHT22;56800;52.142;5.364;2022-09-19T00:54:55;11.20;78.10
69595;DHT22;56800;52.142;5.364;2022-09-19T00:58:35;11.20;78.10
69595;DHT22;56800;52.142;5.364;2022-09-19T01:01:19;11.20;78.00
69595;DHT22;56800;52.142;5.364;2022-09-19T01:04:18;11.20;78.00
69595;DHT22;56800;52.142;5.364;2022-09-19T01:08:05;11.20;77.90
69595;DHT22;56800;52.142;5.364;2022-09-19T01:30:07;11.10;77.50
69595;DHT22;56800;52.142;5.364;2022-09-19T01:33:16;11.10;77.50
69595;DHT22;56800;52.142;5.364;2022-09-19T01:36:25;11.10;77.50
69595;DHT22;56800;52.142;5.364;2022-09-19T01:40:02;11.10;77.40
69595;DHT22;56800;52.142;5.364;2022-09-19T01:42:51;11.10;77.40
69595;DHT22;56800;52.142;5.364;2022-09-19T01:46:05;11.10;77.30
69595;DHT22;56800;52.142;5.364;2022-09-19T01:49:12;11.10;77.30
69595;DHT22;56800;52.142;5.364;2022-09-19T02:00:05;11.10;77.30
69595;DHT22;56800;52.142;5.364;2022-09-19T02:03:25;11.10;77.20
69595;DHT22;56800;52.142;5.364;2022-09-19T02:06:48;11.10;77.10
69595;DHT22;56800;52.142;5.364;2022-09-19T02:12:56;11.10;77.00
69595;DHT22;56800;52.142;5.364;2022-09-19T02:16:44;11.10;77.00
69595;DHT22;56800;52.142;5.364;2022-09-19T02:20:12;11.10;76.90
69595;DHT22;56800;52.142;5.364;2022-09-19T02:22:59;11.10;76.90
69595;DHT22;56800;52.142;5.364;2022-09-19T02:25:41;11.10;76.90
69595;DHT22;56800;52.142;5.364;2022-09-19T02:28:16;11.10;77.00
69595;DHT22;56800;52.142;5.364;2022-09-19T02:31:03;11.10;77.00
69595;DHT22;56800;52.142;5.364;2022-09-19T02:34:16;11.10;77.00
69595;DHT22;56800;52.142;5.364;2022-09-19T02:37:40;11.10;76.80
69595;DHT22;56800;52.142;5.364;2022-09-19T03:00:25;11.10;76.60
69595;DHT22;56800;52.142;5.364;2022-09-19T03:03:20;11.10;76.60
69595;DHT22;56800;52.142;5.364;2022-09-19T03:06:31;11.10;76.60
69595;DHT22;56800;52.142;5.364;2022-09-19T03:09:17;11.10;76.60
69595;DHT22;56800;52.142;5.364;2022-09-19T03:13:05;11.00;76.60
69595;DHT22;56800;52.142;5.364;2022-09-19T03:15:53;11.00;76.60
69595;DHT22;56800;52.142;5.364;2022-09-19T03:18:56;11.00;76.60
69595;DHT22;56800;52.142;5.364;2022-09-19T03:22:22;11.00;76.60
69595;DHT22;56800;52.142;5.364;2022-09-19T03:25:47;11.00;76.70
69595;DHT22;56800;52.142;5.364;2022-09-19T03:32:36;11.00;76.60
69595;DHT22;56800;52.142;5.364;2022-09-19T03:36:12;11.00;76.60
69595;DHT22;56800;52.142;5.364;2022-09-19T03:39:30;11.00;76.70
69595;DHT22;56800;52.142;5.364;2022-09-19T03:42:55;11.00;76.70
69595;DHT22;56800;52.142;5.364;2022-09-19T03:46:04;11.00;76.80
69595;DHT22;56800;52.142;5.364;2022-09-19T03:49:29;11.00;76.90
69595;DHT22;56800;52.142;5.364;2022-09-19T03:52:30;11.10;77.00
69595;DHT22;56800;52.142;5.364;2022-09-19T03:55:30;11.10;77.00
69595;DHT22;56800;52.142;5.364;2022-09-19T03:58:54;11.10;77.10
69595;DHT22;56800;52.142;5.364;2022-09-19T04:01:41;11.20;77.10
69595;DHT22;56800;52.142;5.364;2022-09-19T04:04:38;11.20;77.00
69595;DHT22;56800;52.142;5.364;2022-09-19T04:07:41;11.20;77.00
69595;DHT22;56800;52.142;5.364;2022-09-19T04:10:27;11.10;77.10
69595;DHT22;56800;52.142;5.364;2022-09-19T04:13:22;11.20;77.20
69595;DHT22;56800;52.142;5.364;2022-09-19T04:16:53;11.20;77.20
69595;DHT22;56800;52.142;5.364;2022-09-19T04:20:01;11.20;77.20
69595;DHT22;56800;52.142;5.364;2022-09-19T04:22:57;11.20;77.20
69595;DHT22;56800;52.142;5.364;2022-09-19T04:25:43;11.20;77.20
69595;DHT22;56800;52.142;5.364;2022-09-19T04:28:47;11.20;77.30
69595;DHT22;56800;52.142;5.364;2022-09-19T04:31:47;11.20;77.30
69595;DHT22;56800;52.142;5.364;2022-09-19T04:35:18;11.20;77.30
69595;DHT22;56800;52.142;5.364;2022-09-19T04:38:32;11.20;77.30
69595;DHT22;56800;52.142;5.364;2022-09-19T04:41:39;11.20;77.40
69595;DHT22;56800;52.142;5.364;2022-09-19T04:44:58;11.20;77.40
69595;DHT22;56800;52.142;5.364;2022-09-19T04:47:42;11.20;77.40
69595;DHT22;56800;52.142;5.364;2022-09-19T04:51:46;11.20;77.40
69595;DHT22;56800;52.142;5.364;2022-09-19T04:55:01;11.20;77.40
69595;DHT22;56800;52.142;5.364;2022-09-19T05:03:03;11.20;77.40
69595;DHT22;56800;52.142;5.364;2022-09-19T05:05:53;11.20;77.50
69595;DHT22;56800;52.142;5.364;2022-09-19T05:08:57;11.20;77.60
69595;DHT22;56800;52.142;5.364;2022-09-19T05:12:30;11.20;77.70
69595;DHT22;56800;52.142;5.364;2022-09-19T05:15:49;11.20;77.70
69595;DHT22;56800;52.142;5.364;2022-09-19T05:18:58;11.30;77.80
69595;DHT22;56800;52.142;5.364;2022-09-19T05:22:35;11.30;77.80
69595;DHT22;56800;52.142;5.364;2022-09-19T05:26:01;11.30;77.70
69595;DHT22;56800;52.142;5.364;2022-09-19T05:29:19;11.30;77.60
69595;DHT22;56800;52.142;5.364;2022-09-19T05:33:02;11.20;77.60
69595;DHT22;56800;52.142;5.364;2022-09-19T05:36:31;11.20;77.50
69595;DHT22;56800;52.142;5.364;2022-09-19T05:39:12;11.20;77.40
69595;DHT22;56800;52.142;5.364;2022-09-19T05:42:05;11.10;77.40
69595;DHT22;56800;52.142;5.364;2022-09-19T05:48:30;11.10;77.50
69595;DHT22;56800;52.142;5.364;2022-09-19T05:52:09;11.10;77.50
69595;DHT22;56800;52.142;5.364;2022-09-19T05:55:27;11.10;77.70
69595;DHT22;56800;52.142;5.364;2022-09-19T05:58:26;11.10;78.60
69595;DHT22;56800;52.142;5.364;2022-09-19T06:01:14;11.10;77.90
69595;DHT22;56800;52.142;5.364;2022-09-19T06:03:56;11.10;78.00
69595;DHT22;56800;52.142;5.364;2022-09-19T06:07:06;11.10;78.10
69595;DHT22;56800;52.142;5.364;2022-09-19T06:10:00;11.20;78.10
69595;DHT22;56800;52.142;5.364;2022-09-19T06:12:31;11.20;78.10
69595;DHT22;56800;52.142;5.364;2022-09-19T06:14:59;11.20;78.20
69595;DHT22;56800;52.142;5.364;2022-09-19T06:17:33;11.30;78.30
69595;DHT22;56800;52.142;5.364;2022-09-19T06:20:41;11.30;78.30
69595;DHT22;56800;52.142;5.364;2022-09-19T06:23:45;11.40;78.30
69595;DHT22;56800;52.142;5.364;2022-09-19T06:26:20;11.40;78.30
69595;DHT22;56800;52.142;5.364;2022-09-19T06:28:58;11.50;78.40
69595;DHT22;56800;52.142;5.364;2022-09-19T06:32:02;11.50;78.40
69595;DHT22;56800;52.142;5.364;2022-09-19T06:34:34;11.50;78.40
69595;DHT22;56800;52.142;5.364;2022-09-19T06:37:21;11.60;78.50
69595;DHT22;56800;52.142;5.364;2022-09-19T06:39:50;11.60;78.50
69595;DHT22;56800;52.142;5.364;2022-09-19T06:42:21;11.70;78.60
69595;DHT22;56800;52.142;5.364;2022-09-19T06:45:03;11.70;78.70
69595;DHT22;56800;52.142;5.364;2022-09-19T06:47:35;11.80;78.80
69595;DHT22;56800;52.142;5.364;2022-09-19T06:50:03;11.80;78.80
69595;DHT22;56800;52.142;5.364;2022-09-19T06:52:31;11.90;78.90
69595;DHT22;56800;52.142;5.364;2022-09-19T06:54:59;12.00;79.00
69595;DHT22;56800;52.142;5.364;2022-09-19T06:57:35;12.10;79.20
69595;DHT22;56800;52.142;5.364;2022-09-19T07:00:02;12.10;79.20
69595;DHT22;56800;52.142;5.364;2022-09-19T07:02:29;12.20;79.30
69595;DHT22;56800;52.142;5.364;2022-09-19T07:04:57;12.40;79.40
69595;DHT22;56800;52.142;5.364;2022-09-19T07:07:34;12.50;79.30
69595;DHT22;56800;52.142;5.364;2022-09-19T07:10:01;12.60;79.20
69595;DHT22;56800;52.142;5.364;2022-09-19T07:12:28;12.60;79.10
69595;DHT22;56800;52.142;5.364;2022-09-19T07:14:54;12.70;79.90
69595;DHT22;56800;52.142;5.364;2022-09-19T07:21:19;12.90;78.90
69595;DHT22;56800;52.142;5.364;2022-09-19T07:23:50;12.90;78.70
69595;DHT22;56800;52.142;5.364;2022-09-19T07:26:17;13.00;78.70
69595;DHT22;56800;52.142;5.364;2022-09-19T07:29:13;13.10;78.70
69595;DHT22;56800;52.142;5.364;2022-09-19T07:36:23;13.20;78.30
69595;DHT22;56800;52.142;5.364;2022-09-19T07:38:50;13.20;78.20
69595;DHT22;56800;52.142;5.364;2022-09-19T07:41:17;13.20;78.20
69595;DHT22;56800;52.142;5.364;2022-09-19T07:43:44;13.30;78.30
69595;DHT22;56800;52.142;5.364;2022-09-19T07:46:14;13.30;78.30
69595;DHT22;56800;52.142;5.364;2022-09-19T07:48:42;13.30;78.20
69595;DHT22;56800;52.142;5.364;2022-09-19T07:51:08;13.40;78.10
69595;DHT22;56800;52.142;5.364;2022-09-19T07:53:35;13.50;78.10
69595;DHT22;56800;52.142;5.364;2022-09-19T07:56:02;13.50;77.80
69595;DHT22;56800;52.142;5.364;2022-09-19T07:58:30;13.70;77.80
69595;DHT22;56800;52.142;5.364;2022-09-19T08:00:58;13.70;77.60
69595;DHT22;56800;52.142;5.364;2022-09-19T08:03:28;13.80;77.50
69595;DHT22;56800;52.142;5.364;2022-09-19T08:05:58;13.90;77.40
69595;DHT22;56800;52.142;5.364;2022-09-19T08:08:25;14.00;77.10
69595;DHT22;56800;52.142;5.364;2022-09-19T08:10:57;14.10;77.00
69595;DHT22;56800;52.142;5.364;2022-09-19T08:13:27;14.10;76.50
69595;DHT22;56800;52.142;5.364;2022-09-19T08:15:55;14.20;76.00
69595;DHT22;56800;52.142;5.364;2022-09-19T08:18:28;14.20;75.70
69595;DHT22;56800;52.142;5.364;2022-09-19T08:20:55;14.20;75.60
69595;DHT22;56800;52.142;5.364;2022-09-19T08:23:22;14.20;75.50
69595;DHT22;56800;52.142;5.364;2022-09-19T08:25:49;14.20;75.50
69595;DHT22;56800;52.142;5.364;2022-09-19T08:28:18;14.30;75.50
69595;DHT22;56800;52.142;5.364;2022-09-19T08:30:47;14.30;75.40
69595;DHT22;56800;52.142;5.364;2022-09-19T08:33:15;14.30;75.40
69595;DHT22;56800;52.142;5.364;2022-09-19T08:35:42;14.30;75.60
69595;DHT22;56800;52.142;5.364;2022-09-19T08:38:11;14.40;75.30
69595;DHT22;56800;52.142;5.364;2022-09-19T08:43:26;14.50;73.30
69595;DHT22;56800;52.142;5.364;2022-09-19T08:48:58;14.50;73.10
69595;DHT22;56800;52.142;5.364;2022-09-19T08:54:23;14.50;73.20
69595;DHT22;56800;52.142;5.364;2022-09-19T08:56:51;14.50;73.30
69595;DHT22;56800;52.142;5.364;2022-09-19T08:59:22;14.50;73.60
69595;DHT22;56800;52.142;5.364;2022-09-19T09:04:50;14.40;74.10
69595;DHT22;56800;52.142;5.364;2022-09-19T09:07:45;14.40;74.40
69595;DHT22;56800;52.142;5.364;2022-09-19T09:13:01;14.30;75.00
69595;DHT22;56800;52.142;5.364;2022-09-19T09:15:55;14.40;75.40
69595;DHT22;56800;52.142;5.364;2022-09-19T09:18:44;14.40;75.30
69595;DHT22;56800;52.142;5.364;2022-09-19T09:23:57;14.70;76.20
69595;DHT22;56800;52.142;5.364;2022-09-19T09:26:45;15.00;76.80
69595;DHT22;56800;52.142;5.364;2022-09-19T09:29:26;15.30;75.50
69595;DHT22;56800;52.142;5.364;2022-09-19T09:32:08;15.60;74.80
69595;DHT22;56800;52.142;5.364;2022-09-19T09:34:52;15.70;74.30
69595;DHT22;56800;52.142;5.364;2022-09-19T09:37:25;15.90;73.90
69595;DHT22;56800;52.142;5.364;2022-09-19T09:40:09;16.00;73.80
69595;DHT22;56800;52.142;5.364;2022-09-19T09:42:54;16.20;73.80
69595;DHT22;56800;52.142;5.364;2022-09-19T09:45:42;16.50;73.80
69595;DHT22;56800;52.142;5.364;2022-09-19T09:48:37;17.10;73.70
69595;DHT22;56800;52.142;5.364;2022-09-19T09:51:23;17.60;71.80
69595;DHT22;56800;52.142;5.364;2022-09-19T09:54:08;17.90;70.00
69595;DHT22;56800;52.142;5.364;2022-09-19T09:57:14;18.10;68.20
69595;DHT22;56800;52.142;5.364;2022-09-19T09:59:52;18.20;67.50
69595;DHT22;56800;52.142;5.364;2022-09-19T10:06:11;18.20;66.40
69595;DHT22;56800;52.142;5.364;2022-09-19T10:14:48;17.60;66.30
69595;DHT22;56800;52.142;5.364;2022-09-19T10:17:16;17.20;66.90
69595;DHT22;56800;52.142;5.364;2022-09-19T10:19:52;17.00;67.60
69595;DHT22;56800;52.142;5.364;2022-09-19T10:22:20;16.80;68.00
69595;DHT22;56800;52.142;5.364;2022-09-19T10:24:51;16.60;68.20
69595;DHT22;56800;52.142;5.364;2022-09-19T10:27:23;16.50;68.50
69595;DHT22;56800;52.142;5.364;2022-09-19T10:32:43;16.40;68.00
69595;DHT22;56800;52.142;5.364;2022-09-19T10:38:07;16.50;66.80
69595;DHT22;56800;52.142;5.364;2022-09-19T10:40:37;16.50;66.90
69595;DHT22;56800;52.142;5.364;2022-09-19T10:43:04;16.40;66.70
69595;DHT22;56800;52.142;5.364;2022-09-19T10:45:34;16.40;66.90
69595;DHT22;56800;52.142;5.364;2022-09-19T10:48:16;16.30;66.90
69595;DHT22;56800;52.142;5.364;2022-09-19T10:50:46;16.10;67.20
69595;DHT22;56800;52.142;5.364;2022-09-19T10:53:32;16.00;67.50
69595;DHT22;56800;52.142;5.364;2022-09-19T10:56:28;15.90;67.70
69595;DHT22;56800;52.142;5.364;2022-09-19T10:59:03;16.00;67.90
69595;DHT22;56800;52.142;5.364;2022-09-19T11:01:36;15.90;68.10
69595;DHT22;56800;52.142;5.364;2022-09-19T11:05:03;15.90;68.40
69595;DHT22;56800;52.142;5.364;2022-09-19T11:08:22;15.90;68.50
69595;DHT22;56800;52.142;5.364;2022-09-19T11:11:35;16.00;68.80
69595;DHT22;56800;52.142;5.364;2022-09-19T11:14:45;16.10;69.00
69595;DHT22;56800;52.142;5.364;2022-09-19T11:18:39;16.20;69.10
69595;DHT22;56800;52.142;5.364;2022-09-19T11:25:32;16.50;69.20
69595;DHT22;56800;52.142;5.364;2022-09-19T11:35:43;16.90;68.10
69595;DHT22;56800;52.142;5.364;2022-09-19T11:38:58;16.90;67.40
69595;DHT22;56800;52.142;5.364;2022-09-19T11:42:42;16.70;66.70
69595;DHT22;56800;52.142;5.364;2022-09-19T11:46:12;16.50;66.30
69595;DHT22;56800;52.142;5.364;2022-09-19T11:53:36;16.10;67.80
69595;DHT22;56800;52.142;5.364;2022-09-19T11:57:27;16.00;68.40
69595;DHT22;56800;52.142;5.364;2022-09-19T12:00:58;15.90;68.90
69595;DHT22;56800;52.142;5.364;2022-09-19T12:08:00;15.80;69.50
69595;DHT22;56800;52.142;5.364;2022-09-19T12:15:37;15.70;70.00
69595;DHT22;56800;52.142;5.364;2022-09-19T12:19:09;15.90;70.70
69595;DHT22;56800;52.142;5.364;2022-09-19T12:22:04;16.10;71.00
69595;DHT22;56800;52.142;5.364;2022-09-19T12:25:21;16.40;70.30
69595;DHT22;56800;52.142;5.364;2022-09-19T12:28:23;16.70;70.40
69595;DHT22;56800;52.142;5.364;2022-09-19T12:31:34;17.10;70.00
69595;DHT22;56800;52.142;5.364;2022-09-19T12:34:26;17.30;68.90
69595;DHT22;56800;52.142;5.364;2022-09-19T12:38:24;17.30;68.20
69595;DHT22;56800;52.142;5.364;2022-09-19T12:41:29;17.00;67.10
69595;DHT22;56800;52.142;5.364;2022-09-19T12:44:28;16.70;67.50
69595;DHT22;56800;52.142;5.364;2022-09-19T12:48:10;16.50;68.00
69595;DHT22;56800;52.142;5.364;2022-09-19T12:50:57;16.30;68.30
69595;DHT22;56800;52.142;5.364;2022-09-19T12:56:32;16.10;69.10
69595;DHT22;56800;52.142;5.364;2022-09-19T12:59:45;16.00;69.40
69595;DHT22;56800;52.142;5.364;2022-09-19T13:03:25;16.10;69.90
69595;DHT22;56800;52.142;5.364;2022-09-19T13:06:23;16.10;70.00
69595;DHT22;56800;52.142;5.364;2022-09-19T13:09:09;16.20;70.30
69595;DHT22;56800;52.142;5.364;2022-09-19T13:12:38;16.20;70.20
69595;DHT22;56800;52.142;5.364;2022-09-19T13:15:26;16.30;70.00
69595;DHT22;56800;52.142;5.364;2022-09-19T13:18:14;16.30;69.60
69595;DHT22;56800;52.142;5.364;2022-09-19T13:21:01;16.30;69.10
69595;DHT22;56800;52.142;5.364;2022-09-19T13:23:54;16.20;68.40
69595;DHT22;56800;52.142;5.364;2022-09-19T13:26:30;16.10;68.00
69595;DHT22;56800;52.142;5.364;2022-09-19T13:35:51;15.90;68.20
69595;DHT22;56800;52.142;5.364;2022-09-19T13:38:46;15.90;68.40
69595;DHT22;56800;52.142;5.364;2022-09-19T13:41:50;15.90;68.50
69595;DHT22;56800;52.142;5.364;2022-09-19T13:48:31;16.00;68.40
69595;DHT22;56800;52.142;5.364;2022-09-19T13:51:55;16.10;68.60
69595;DHT22;56800;52.142;5.364;2022-09-19T13:57:29;16.20;69.10
69595;DHT22;56800;52.142;5.364;2022-09-19T14:00:33;16.30;68.30
69595;DHT22;56800;52.142;5.364;2022-09-19T14:03:38;16.30;68.40
69595;DHT22;56800;52.142;5.364;2022-09-19T14:07:01;16.30;68.30
69595;DHT22;56800;52.142;5.364;2022-09-19T14:10:31;16.40;68.60
69595;DHT22;56800;52.142;5.364;2022-09-19T14:13:30;16.50;68.80
69595;DHT22;56800;52.142;5.364;2022-09-19T14:16:28;16.60;68.60
69595;DHT22;56800;52.142;5.364;2022-09-19T14:22:49;16.90;68.90
69595;DHT22;56800;52.142;5.364;2022-09-19T14:30:19;17.10;67.00
69595;DHT22;56800;52.142;5.364;2022-09-19T14:37:33;17.30;65.30
69595;DHT22;56800;52.142;5.364;2022-09-19T14:40:43;17.40;64.60
69595;DHT22;56800;52.142;5.364;2022-09-19T14:47:58;17.40;63.30
69595;DHT22;56800;52.142;5.364;2022-09-19T14:57:33;16.30;66.20
69595;DHT22;56800;52.142;5.364;2022-09-19T15:05:18;15.80;67.60
69595;DHT22;56800;52.142;5.364;2022-09-19T15:08:56;15.70;68.40
69595;DHT22;56800;52.142;5.364;2022-09-19T15:16:29;15.90;69.10
69595;DHT22;56800;52.142;5.364;2022-09-19T15:20:21;15.90;69.20
69595;DHT22;56800;52.142;5.364;2022-09-19T15:24:36;15.90;69.30
69595;DHT22;56800;52.142;5.364;2022-09-19T15:27:58;16.00;69.50
69595;DHT22;56800;52.142;5.364;2022-09-19T15:31:26;15.90;69.60
69595;DHT22;56800;52.142;5.364;2022-09-19T15:34:43;16.00;69.90
69595;DHT22;56800;52.142;5.364;2022-09-19T15:37:37;15.90;69.90
69595;DHT22;56800;52.142;5.364;2022-09-19T15:40:07;15.90;70.90
69595;DHT22;56800;52.142;5.364;2022-09-19T15:42:41;15.90;70.20
69595;DHT22;56800;52.142;5.364;2022-09-19T15:45:42;15.90;70.30
69595;DHT22;56800;52.142;5.364;2022-09-19T15:50:48;15.80;70.40
69595;DHT22;56800;52.142;5.364;2022-09-19T15:53:25;15.80;70.50
69595;DHT22;56800;52.142;5.364;2022-09-19T15:56:20;15.80;70.80
69595;DHT22;56800;52.142;5.364;2022-09-19T15:59:00;15.80;70.70
69595;DHT22;56800;52.142;5.364;2022-09-19T16:01:29;15.90;70.50
69595;DHT22;56800;52.142;5.364;2022-09-19T16:04:12;15.90;70.50
69595;DHT22;56800;52.142;5.364;2022-09-19T16:09:37;15.80;70.40
69595;DHT22;56800;52.142;5.364;2022-09-19T16:12:49;15.80;70.50
69595;DHT22;56800;52.142;5.364;2022-09-19T16:23:16;15.60;70.10
69595;DHT22;56800;52.142;5.364;2022-09-19T16:25:54;15.60;70.10
69595;DHT22;56800;52.142;5.364;2022-09-19T16:31:21;15.60;70.20
69595;DHT22;56800;52.142;5.364;2022-09-19T16:34:05;15.50;70.20
69595;DHT22;56800;52.142;5.364;2022-09-19T16:37:01;15.50;70.00
69595;DHT22;56800;52.142;5.364;2022-09-19T16:42:18;15.40;69.30
69595;DHT22;56800;52.142;5.364;2022-09-19T16:47:41;15.30;68.40
69595;DHT22;56800;52.142;5.364;2022-09-19T16:50:10;15.30;68.30
69595;DHT22;56800;52.142;5.364;2022-09-19T16:52:38;15.30;68.30
69595;DHT22;56800;52.142;5.364;2022-09-19T16:57:50;15.20;67.80
69595;DHT22;56800;52.142;5.364;2022-09-19T17:00:17;15.20;67.90
69595;DHT22;56800;52.142;5.364;2022-09-19T17:02:44;15.10;67.80
69595;DHT22;56800;52.142;5.364;2022-09-19T17:05:18;15.10;67.80
69595;DHT22;56800;52.142;5.364;2022-09-19T17:07:45;15.10;67.80
69595;DHT22;56800;52.142;5.364;2022-09-19T17:10:13;15.10;68.10
69595;DHT22;56800;52.142;5.364;2022-09-19T17:12:41;15.10;68.10
69595;DHT22;56800;52.142;5.364;2022-09-19T17:15:19;15.00;68.00
69595;DHT22;56800;52.142;5.364;2022-09-19T17:17:46;15.00;68.80
69595;DHT22;56800;52.142;5.364;2022-09-19T17:20:14;15.00;67.90
69595;DHT22;56800;52.142;5.364;2022-09-19T17:22:41;14.90;67.60
69595;DHT22;56800;52.142;5.364;2022-09-19T17:25:24;14.90;67.50
69595;DHT22;56800;52.142;5.364;2022-09-19T17:27:57;14.90;67.50
69595;DHT22;56800;52.142;5.364;2022-09-19T17:30:24;14.90;67.70
69595;DHT22;56800;52.142;5.364;2022-09-19T17:32:50;14.80;67.90
69595;DHT22;56800;52.142;5.364;2022-09-19T17:35:18;14.80;67.90
69595;DHT22;56800;52.142;5.364;2022-09-19T17:37:45;14.80;68.00
69595;DHT22;56800;52.142;5.364;2022-09-19T17:40:11;14.80;68.00
69595;DHT22;56800;52.142;5.364;2022-09-19T17:42:39;14.80;68.10
69595;DHT22;56800;52.142;5.364;2022-09-19T17:45:07;14.70;68.20
69595;DHT22;56800;52.142;5.364;2022-09-19T17:47:34;14.70;68.20
69595;DHT22;56800;52.142;5.364;2022-09-19T17:50:10;14.70;68.40
69595;DHT22;56800;52.142;5.364;2022-09-19T17:52:37;14.70;68.50
69595;DHT22;56800;52.142;5.364;2022-09-19T17:55:04;14.70;68.30
69595;DHT22;56800;52.142;5.364;2022-09-19T17:57:31;14.60;68.30
69595;DHT22;56800;52.142;5.364;2022-09-19T17:59:59;14.60;68.30
69595;DHT22;56800;52.142;5.364;2022-09-19T18:02:27;14.60;68.20
69595;DHT22;56800;52.142;5.364;2022-09-19T18:05:12;14.50;68.30
69595;DHT22;56800;52.142;5.364;2022-09-19T18:07:40;14.50;68.50
69595;DHT22;56800;52.142;5.364;2022-09-19T18:10:07;14.50;68.50
69595;DHT22;56800;52.142;5.364;2022-09-19T18:12:34;14.50;68.60
69595;DHT22;56800;52.142;5.364;2022-09-19T18:15:02;14.50;68.60
69595;DHT22;56800;52.142;5.364;2022-09-19T18:17:29;14.40;68.60
69595;DHT22;56800;52.142;5.364;2022-09-19T18:19:58;14.40;68.40
69595;DHT22;56800;52.142;5.364;2022-09-19T18:22:25;14.40;68.40
69595;DHT22;56800;52.142;5.364;2022-09-19T18:24:52;14.40;68.40
69595;DHT22;56800;52.142;5.364;2022-09-19T18:27:18;14.40;68.50
69595;DHT22;56800;52.142;5.364;2022-09-19T18:29:45;14.40;68.60
69595;DHT22;56800;52.142;5.364;2022-09-19T18:32:12;14.30;68.50
69595;DHT22;56800;52.142;5.364;2022-09-19T18:34:38;14.30;68.70
69595;DHT22;56800;52.142;5.364;2022-09-19T18:37:05;14.30;69.00
69595;DHT22;56800;52.142;5.364;2022-09-19T18:39:32;14.20;69.30
69595;DHT22;56800;52.142;5.364;2022-09-19T18:41:58;14.20;69.50
69595;DHT22;56800;52.142;5.364;2022-09-19T18:44:25;14.10;69.70
69595;DHT22;56800;52.142;5.364;2022-09-19T18:46:51;14.10;69.90
69595;DHT22;56800;52.142;5.364;2022-09-19T18:49:18;14.00;69.80
69595;DHT22;56800;52.142;5.364;2022-09-19T18:51:46;14.00;69.90
69595;DHT22;56800;52.142;5.364;2022-09-19T18:54:13;13.90;69.90
69595;DHT22;56800;52.142;5.364;2022-09-19T18:56:45;13.80;69.80
69595;DHT22;56800;52.142;5.364;2022-09-19T18:59:12;13.80;69.80
69595;DHT22;56800;52.142;5.364;2022-09-19T19:01:38;13.80;70.00
69595;DHT22;56800;52.142;5.364;2022-09-19T19:04:06;13.80;70.10
69595;DHT22;56800;52.142;5.364;2022-09-19T19:06:32;13.70;70.10
69595;DHT22;56800;52.142;5.364;2022-09-19T19:09:00;13.70;70.10
69595;DHT22;56800;52.142;5.364;2022-09-19T19:11:31;13.70;70.20
69595;DHT22;56800;52.142;5.364;2022-09-19T19:14:01;13.60;70.30
69595;DHT22;56800;52.142;5.364;2022-09-19T19:16:28;13.60;70.40
69595;DHT22;56800;52.142;5.364;2022-09-19T19:18:57;13.60;70.60
69595;DHT22;56800;52.142;5.364;2022-09-19T19:21:26;13.50;70.70
69595;DHT22;56800;52.142;5.364;2022-09-19T19:23:55;13.50;70.80
69595;DHT22;56800;52.142;5.364;2022-09-19T19:26:24;13.40;70.80
69595;DHT22;56800;52.142;5.364;2022-09-19T19:28:51;13.40;70.90
69595;DHT22;56800;52.142;5.364;2022-09-19T19:31:19;13.40;70.90
69595;DHT22;56800;52.142;5.364;2022-09-19T19:33:46;13.30;71.00
69595;DHT22;56800;52.142;5.364;2022-09-19T19:36:17;13.30;71.10
69595;DHT22;56800;52.142;5.364;2022-09-19T19:38:46;13.30;71.20
69595;DHT22;56800;52.142;5.364;2022-09-19T19:41:21;13.30;71.20
69595;DHT22;56800;52.142;5.364;2022-09-19T19:43:50;13.30;71.30
69595;DHT22;56800;52.142;5.364;2022-09-19T19:46:19;13.20;71.40
69595;DHT22;56800;52.142;5.364;2022-09-19T19:49:05;13.20;71.50
69595;DHT22;56800;52.142;5.364;2022-09-19T19:51:40;13.10;71.40
69595;DHT22;56800;52.142;5.364;2022-09-19T19:54:51;13.10;71.30
69595;DHT22;56800;52.142;5.364;2022-09-19T19:57:18;13.10;72.20
69595;DHT22;56800;52.142;5.364;2022-09-19T19:59:44;13.10;71.60
69595;DHT22;56800;52.142;5.364;2022-09-19T20:02:13;13.10;71.70
69595;DHT22;56800;52.142;5.364;2022-09-19T20:06:00;13.00;71.70
69595;DHT22;56800;52.142;5.364;2022-09-19T20:09:29;13.10;71.70
69595;DHT22;56800;52.142;5.364;2022-09-19T20:11:56;13.10;71.70
69595;DHT22;56800;52.142;5.364;2022-09-19T20:14:22;13.10;71.70
69595;DHT22;56800;52.142;5.364;2022-09-19T20:16:49;13.10;71.80
69595;DHT22;56800;52.142;5.364;2022-09-19T20:19:22;13.10;71.70
69595;DHT22;56800;52.142;5.364;2022-09-19T20:25:06;13.10;71.80
69595;DHT22;56800;52.142;5.364;2022-09-19T20:27:32;13.10;71.80
69595;DHT22;56800;52.142;5.364;2022-09-19T20:30:01;13.20;71.90
69595;DHT22;56800;52.142;5.364;2022-09-19T20:32:28;13.20;72.00
69595;DHT22;56800;52.142;5.364;2022-09-19T20:34:54;13.20;72.10
69595;DHT22;56800;52.142;5.364;2022-09-19T20:37:22;13.20;72.20
69595;DHT22;56800;52.142;5.364;2022-09-19T20:39:54;13.20;72.20
69595;DHT22;56800;52.142;5.364;2022-09-19T20:42:21;13.20;72.20
69595;DHT22;56800;52.142;5.364;2022-09-19T20:44:48;13.20;72.30
69595;DHT22;56800;52.142;5.364;2022-09-19T20:47:14;13.20;72.40
69595;DHT22;56800;52.142;5.364;2022-09-19T20:49:41;13.20;72.50
69595;DHT22;56800;52.142;5.364;2022-09-19T20:52:09;13.20;72.50
69595;DHT22;56800;52.142;5.364;2022-09-19T20:54:40;13.20;72.60
69595;DHT22;56800;52.142;5.364;2022-09-19T20:57:07;13.20;72.70
69595;DHT22;56800;52.142;5.364;2022-09-19T20:59:33;13.20;72.80
69595;DHT22;56800;52.142;5.364;2022-09-19T21:02:00;13.20;72.80
69595;DHT22;56800;52.142;5.364;2022-09-19T21:04:26;13.20;72.80
69595;DHT22;56800;52.142;5.364;2022-09-19T21:06:53;13.20;72.90
69595;DHT22;56800;52.142;5.364;2022-09-19T21:09:20;13.20;72.90
69595;DHT22;56800;52.142;5.364;2022-09-19T21:11:46;13.20;73.00
69595;DHT22;56800;52.142;5.364;2022-09-19T21:14:13;13.20;73.00
69595;DHT22;56800;52.142;5.364;2022-09-19T21:16:40;13.20;73.10
69595;DHT22;56800;52.142;5.364;2022-09-19T21:19:06;13.20;73.10